Tempos de volta de RENTAL PROVA 4 - 19:30
KARTODROMO INTERNACIONAL GRANJA VIANA a funcionar KGV RACE TRACKS - CIRCUITO 121
Tempos de volta de RENTAL - PROVA 4 - 19:30


Hora do dia Volta Volta do Líder Volta Tm Velocidade
031 - AUGUSTO CHAGAS - 4 TEMPOS
19:44:56.653 1 1 44.334 64,961
19:45:37.047 2 2 40.394 71,298
19:46:16.871 3 3 39.824 72,318
19:46:56.192 4 4 39.321 73,243
19:47:35.357 5 5 39.165 73,535
19:48:14.354 6 6 38.997 73,852
19:48:53.530 7 7 39.176 73,514
19:49:32.665 8 8 39.135 73,591
19:50:11.564 9 9 38.899 74,038
19:50:50.570 10 10 39.006 73,835
19:51:29.636 11 11 39.066 73,721
19:52:08.752 12 12 39.116 73,627
19:52:47.557 13 13 38.805 74,217
19:53:26.721 14 14 39.164 73,537
19:54:05.720 15 15 38.999 73,848
19:54:44.555 16 16 38.835 74,160
19:55:23.665 17 17 39.110 73,638
19:56:02.699 18 18 39.034 73,782
19:56:41.643 19 19 38.944 73,952
19:57:20.608 20 20 38.965 73,912
19:57:59.538 21 21 38.930 73,979
19:58:38.300 22 22 38.762 74,300
19:59:17.048 23 23 38.748 74,326
19:59:56.890 24 24 39.842 72,286
20:00:36.686 25 25 39.796 72,369
153 - MARCOS BARONE - 4 TEMPOS
19:44:55.553 1 1 43.308 66,500
19:45:35.084 2 2 39.531 72,854
19:46:14.352 3 3 39.268 73,342
19:46:53.554 4 4 39.202 73,466
19:47:32.713 5 5 39.159 73,546
19:48:12.036 6 6 39.323 73,240
19:48:51.313 7 7 39.277 73,325
19:49:30.608 8 8 39.295 73,292
19:50:09.715 9 9 39.107 73,644
19:50:48.800 10 10 39.085 73,686
19:51:28.018 11 11 39.218 73,436
19:52:07.130 12 12 39.112 73,635
19:52:46.210 13 13 39.080 73,695
19:53:25.342 14 14 39.132 73,597
19:54:04.407 15 15 39.065 73,723
19:54:43.506 16 16 39.099 73,659
19:55:22.565 17 17 39.059 73,735
19:56:01.714 18 18 39.149 73,565
19:56:40.719 19 19 39.005 73,837
19:57:19.747 20 20 39.028 73,793
19:57:58.847 21 21 39.100 73,657
19:58:37.923 22 22 39.076 73,703
19:59:16.924 23 23 39.001 73,844
19:59:56.753 24 24 39.829 72,309
20:00:36.747 25 25 39.994 72,011
035 - ALEXANDRE CURY - 4 TEMPOS
19:44:56.876 1 1 43.664 65,958
19:45:36.678 2 2 39.802 72,358
19:46:16.069 3 3 39.391 73,113
19:46:55.220 4 4 39.151 73,561
19:47:34.365 5 5 39.145 73,573
19:48:13.565 6 6 39.200 73,469
19:48:52.851 7 7 39.286 73,309
19:49:32.164 8 8 39.313 73,258
19:50:11.297 9 9 39.133 73,595
19:50:50.739 10 10 39.442 73,019
19:51:29.963 11 11 39.224 73,424
19:52:09.145 12 12 39.182 73,503
19:52:48.149 13 13 39.004 73,839
19:53:27.357 14 14 39.208 73,454
19:54:06.511 15 15 39.154 73,556
19:54:45.593 16 16 39.082 73,691
19:55:24.762 17 17 39.169 73,528
19:56:03.878 18 18 39.116 73,627
19:56:43.032 19 19 39.154 73,556
19:57:22.183 20 20 39.151 73,561
19:58:01.514 21 21 39.331 73,225
19:58:40.728 22 22 39.214 73,443
19:59:20.195 23 23 39.467 72,972
19:59:59.482 24 24 39.287 73,307
20:00:38.957 25 25 39.475 72,958
012 - PAULO ALEX - 4 TEMPOS
19:44:57.305 1 1 43.597 66,060
19:45:37.664 2 2 40.359 71,360
19:46:17.467 3 3 39.803 72,356
19:46:56.810 4 4 39.343 73,202
19:47:36.314 5 5 39.504 72,904
19:48:15.241 6 6 38.927 73,985
19:48:54.972 7 7 39.731 72,487
19:49:34.600 8 8 39.628 72,676
19:50:13.780 9 9 39.180 73,507
19:50:53.175 10 10 39.395 73,106
19:51:32.500 11 11 39.325 73,236
19:52:11.769 12 12 39.269 73,340
19:52:50.982 13 13 39.213 73,445
19:53:30.139 14 14 39.157 73,550
19:54:09.342 15 15 39.203 73,464
19:54:48.533 16 16 39.191 73,486
19:55:27.739 17 17 39.206 73,458
19:56:06.935 18 18 39.196 73,477
19:56:46.313 19 19 39.378 73,137
19:57:25.515 20 20 39.202 73,466
19:58:04.930 21 21 39.415 73,069
19:58:44.384 22 22 39.454 72,996
19:59:23.835 23 23 39.451 73,002
20:00:03.234 24 24 39.399 73,098
20:00:42.431 25 25 39.197 73,475
242 - ALEXANDRE ALBINO - 4 TEMPOS
19:44:57.183 1 1 44.003 65,450
19:45:37.218 2 2 40.035 71,937
19:46:17.344 3 3 40.126 71,774
19:46:56.728 4 4 39.384 73,126
19:47:35.983 5 5 39.255 73,366
19:48:15.126 6 6 39.143 73,576
19:48:54.825 7 7 39.699 72,546
19:49:35.363 8 8 40.538 71,044
19:50:15.260 9 9 39.897 72,186
19:50:54.562 10 10 39.302 73,279
19:51:33.863 11 11 39.301 73,281
19:52:13.111 12 12 39.248 73,380
19:52:52.291 13 13 39.180 73,507
19:53:31.601 14 14 39.310 73,264
19:54:10.798 15 15 39.197 73,475
19:54:50.023 16 16 39.225 73,423
19:55:29.435 17 17 39.412 73,074
19:56:08.631 18 18 39.196 73,477
19:56:47.890 19 19 39.259 73,359
19:57:27.149 20 20 39.259 73,359
19:58:06.393 21 21 39.244 73,387
19:58:45.532 22 22 39.139 73,584
19:59:24.759 23 23 39.227 73,419
20:00:03.829 24 24 39.070 73,714
20:00:43.020 25 25 39.191 73,486
077 - RICARDO GIMENEZ - 4 TEMPOS
19:44:57.740 1 1 43.912 65,586
19:45:37.764 2 2 40.024 71,957
19:46:17.975 3 3 40.211 71,622
19:46:57.414 4 4 39.439 73,024
19:47:36.590 5 5 39.176 73,514
19:48:16.020 6 6 39.430 73,041
19:48:55.464 7 7 39.444 73,015
19:49:35.443 8 8 39.979 72,038
19:50:15.105 9 9 39.662 72,614
19:50:54.411 10 10 39.306 73,271
19:51:34.087 11 11 39.676 72,588
19:52:13.432 12 12 39.345 73,199
19:52:52.682 13 13 39.250 73,376
19:53:32.175 14 14 39.493 72,924
19:54:11.509 15 15 39.334 73,219
19:54:51.115 16 16 39.606 72,716
19:55:30.495 17 17 39.380 73,134
19:56:10.193 18 18 39.698 72,548
19:56:49.995 19 19 39.802 72,358
19:57:29.405 20 20 39.410 73,078
19:58:09.153 21 21 39.748 72,456
19:58:48.595 22 22 39.442 73,019
19:59:28.312 23 23 39.717 72,513
20:00:08.230 24 24 39.918 72,148
20:00:47.811 25 25 39.581 72,762
032 - PAULO - 4 TEMPOS
19:44:57.938 1 1 43.591 66,069
19:45:38.046 2 2 40.108 71,806
19:46:19.209 3 3 41.163 69,966
19:46:58.779 4 4 39.570 72,782
19:47:38.425 5 5 39.646 72,643
19:48:17.737 6 6 39.312 73,260
19:48:57.251 7 7 39.514 72,886
19:49:36.716 8 8 39.465 72,976
19:50:15.999 9 9 39.283 73,314
19:50:55.383 10 10 39.384 73,126
19:51:34.886 11 11 39.503 72,906
19:52:14.556 12 12 39.670 72,599
19:52:54.175 13 13 39.619 72,692
19:53:33.803 14 14 39.628 72,676
19:54:13.295 15 15 39.492 72,926
19:54:52.786 16 16 39.491 72,928
19:55:32.564 17 17 39.778 72,402
19:56:12.022 18 18 39.458 72,989
19:56:51.634 19 19 39.612 72,705
19:57:31.418 20 20 39.784 72,391
19:58:10.897 21 21 39.479 72,950
19:58:50.467 22 22 39.570 72,782
19:59:31.282 23 23 40.815 70,562
20:00:10.945 24 24 39.663 72,612
20:00:50.376 25 25 39.431 73,039
243 - RODRIGO - 4 TEMPOS
19:44:58.196 1 1 43.682 65,931
19:45:38.354 2 2 40.158 71,717
19:46:18.141 3 3 39.787 72,385
19:46:57.979 4 4 39.838 72,293
19:47:37.513 5 5 39.534 72,849
19:48:17.236 6 6 39.723 72,502
19:48:56.577 7 7 39.341 73,206
19:49:36.072 8 8 39.495 72,921
19:50:15.651 9 9 39.579 72,766
19:50:55.003 10 10 39.352 73,186
19:51:34.492 11 11 39.489 72,932
19:52:14.313 12 12 39.821 72,324
19:52:53.871 13 13 39.558 72,804
19:53:33.589 14 14 39.718 72,511
19:54:13.071 15 15 39.482 72,945
19:54:52.670 16 16 39.599 72,729
19:55:32.192 17 17 39.522 72,871
19:56:11.888 18 18 39.696 72,551
19:56:51.489 19 19 39.601 72,725
19:57:31.300 20 20 39.811 72,342
19:58:10.784 21 21 39.484 72,941
19:58:50.388 22 22 39.604 72,720
19:59:31.779 23 23 41.391 69,580
20:00:11.482 24 24 39.703 72,539
20:00:51.189 25 25 39.707 72,531
022 - DANILO PACINI - 4 TEMPOS
19:44:59.702 1 1 44.858 64,203
19:45:41.065 2 2 41.363 69,627
19:46:22.443 3 3 41.378 69,602
19:47:03.622 4 4 41.179 69,939
19:47:44.858 5 5 41.236 69,842
19:48:26.164 6 6 41.306 69,724
19:49:07.414 7 7 41.250 69,818
19:49:48.996 8 8 41.582 69,261
19:50:30.310 9 9 41.314 69,710
19:51:11.408 10 10 41.098 70,076
19:51:52.690 11 11 41.282 69,764
19:52:34.016 12 12 41.326 69,690
19:53:15.219 13 13 41.203 69,898
19:53:56.487 14 14 41.268 69,788
19:54:37.957 15 15 41.470 69,448
19:55:19.776 16 16 41.819 68,868
Gerada em 13/09/2021 21:21